Main page
METAR-TAF:

METAR-TAF

Airports :

Portorož Airport

Portorož, Slovenia

latitude: 45-31N, longitude: 013-34E, elevation: 95 m

Current weather observation

The report was made 15 minutes ago, at 07:30 UTC
Wind 2 kt from the West
Temperature 15°C
Humidity 55%
Pressure 1029 hPa
Visibility 10 km or more
no clouds below 1500 m and no cumulonimbus

METAR: LJPZ 190730Z 28002KT CAVOK 15/06 Q1029

Time: 09:45 (07:45 UTC)

Forecast

The report was made 2 hours and 45 minutes ago, at 05:00 UTC
Forecast valid from 19 at 06 UTC to 19 at 15 UTC
Wind 5 kt from the East/Southeast
Visibility 10 km or more
no clouds below 1500 m and no cumulonimbus
Becoming
from 19 at 07 UTC to 19 at 10 UTC
Wind 7 kt from the West/Northwest
Few clouds at a height of 6000 ft

TAF: LJPZ 190500Z 1906/1915 12005KT CAVOK BECMG 1907/1910 30007KT FEW060

Weather observations and forecasts of more than 4000 airports (METAR and TAF reports).

The available stations are represented by yellow and red dots on the map.

Hover mouse over dot to see the name of the station.

Then click to see weather observations and forecasts.

To change the map : click on the green buttons with a black cross to zoom in, on the green button with a dash to zoom out, or on the green arrows for adjacent maps.


METAR-TAF: